createdAt,value
2023-03-23T15:58:36.458Z,1.90
2023-03-23T16:01:27.278Z,2.00
2023-03-23T16:04:21.127Z,2.08
2023-03-23T16:07:13.823Z,1.83
2023-03-23T16:10:03.526Z,2.20
2023-03-23T16:12:52.288Z,1.70
2023-03-23T16:15:43.513Z,1.77
2023-03-23T16:18:32.445Z,2.20
2023-03-23T16:21:22.354Z,1.88
2023-03-23T16:24:11.266Z,1.90
2023-03-23T16:26:59.398Z,1.80
2023-03-23T16:30:03.244Z,2.13
2023-03-23T16:32:54.158Z,1.60
2023-03-23T16:35:44.290Z,2.42
2023-03-23T16:38:33.864Z,1.90
2023-03-23T16:41:37.611Z,2.05
2023-03-23T16:44:25.640Z,1.77
2023-03-23T16:47:13.663Z,2.10
2023-03-23T16:50:01.658Z,1.73
2023-03-23T16:52:50.022Z,1.73
2023-03-23T16:55:40.615Z,1.80
2023-03-23T16:58:28.656Z,2.30
2023-03-23T17:01:16.813Z,1.95
2023-03-23T17:04:05.321Z,1.77
2023-03-23T17:06:55.518Z,2.37
2023-03-23T17:09:43.524Z,2.10
2023-03-23T17:12:32.937Z,1.98
2023-03-23T17:15:21.571Z,2.20
2023-03-23T17:18:09.817Z,2.20
2023-03-23T17:20:58.009Z,2.13
2023-03-23T17:23:47.165Z,2.20
2023-03-23T17:26:37.135Z,1.80
2023-03-23T17:29:27.028Z,3.28
2023-03-23T17:32:16.010Z,2.50
2023-03-23T17:35:05.271Z,2.33
2023-03-23T17:37:53.383Z,2.65
2023-03-23T17:40:41.565Z,1.90
2023-03-23T17:43:29.608Z,2.13
2023-03-23T17:46:19.178Z,2.75
2023-03-23T17:49:07.571Z,2.00
2023-03-23T17:51:58.398Z,1.80
2023-03-23T17:54:46.655Z,2.38
2023-03-23T17:57:35.228Z,2.20
2023-03-23T18:00:23.428Z,2.10
2023-03-23T18:03:13.151Z,2.17
2023-03-23T18:06:03.255Z,2.30
2023-03-23T18:08:51.281Z,2.30
2023-03-23T18:11:39.505Z,2.38
2023-03-23T18:14:27.657Z,2.10
2023-03-23T18:17:15.650Z,2.00
2023-03-23T18:20:05.869Z,2.28
2023-03-23T18:22:54.059Z,2.50
2023-03-23T18:25:42.778Z,2.33
2023-03-23T18:28:33.480Z,2.58
2023-03-23T18:31:21.886Z,2.67
2023-03-23T18:34:10.093Z,2.60
2023-03-23T18:36:59.454Z,2.97
2023-03-23T18:39:47.820Z,3.33
2023-03-23T18:42:35.924Z,3.63
2023-03-23T18:45:24.062Z,2.63
2023-03-23T18:48:12.403Z,2.80
2023-03-23T18:51:02.382Z,2.78
2023-03-23T18:53:51.831Z,2.50
2023-03-23T18:56:39.937Z,2.13
2023-03-23T18:59:30.387Z,2.67
2023-03-23T19:02:21.928Z,2.45
2023-03-23T19:05:10.956Z,2.55
2023-03-23T19:08:10.645Z,2.53
2023-03-23T19:11:04.236Z,3.00
2023-03-23T19:14:01.710Z,2.40
2023-03-23T19:16:52.213Z,2.80
2023-03-23T19:19:43.038Z,2.47
2023-03-23T19:22:31.689Z,2.40
2023-03-23T19:25:20.290Z,2.83
2023-03-23T19:29:00.595Z,2.53
2023-03-23T19:31:19.886Z,2.60
2023-03-23T19:34:08.695Z,2.45
2023-03-23T19:37:05.345Z,2.70
2023-03-23T19:39:54.364Z,2.50
2023-03-23T19:42:42.284Z,2.70
2023-03-23T19:45:31.716Z,2.42
2023-03-23T19:48:19.735Z,2.80
2023-03-23T19:51:09.120Z,3.05
2023-03-23T19:53:58.259Z,2.75
2023-03-23T19:56:47.001Z,2.67
2023-03-23T19:59:35.657Z,3.45
2023-03-23T20:02:25.075Z,3.50
2023-03-23T20:05:13.133Z,3.22
2023-03-23T20:08:02.629Z,3.45
2023-03-23T20:10:50.956Z,3.20
2023-03-23T20:13:39.899Z,3.40
2023-03-23T20:16:28.219Z,3.15
2023-03-23T20:19:17.835Z,3.58
2023-03-23T20:22:06.051Z,3.08
2023-03-23T20:24:54.336Z,3.30
2023-03-23T20:27:43.590Z,3.15
2023-03-23T20:30:31.909Z,3.10
2023-03-23T20:33:20.852Z,3.47
2023-03-23T20:36:11.014Z,3.10
2023-03-23T20:38:59.118Z,3.67
2023-03-23T20:41:48.433Z,3.63
2023-03-23T20:44:39.552Z,3.83
2023-03-23T20:47:28.623Z,3.70
2023-03-23T20:50:16.704Z,3.55
2023-03-23T20:53:06.061Z,4.27
2023-03-23T20:55:54.091Z,4.30
2023-03-23T20:58:42.572Z,3.60
2023-03-23T21:01:33.110Z,3.60
2023-03-23T21:04:27.509Z,4.65
2023-03-23T21:07:16.570Z,4.80
2023-03-23T21:10:07.293Z,3.88
2023-03-23T21:12:56.740Z,4.38
2023-03-23T21:15:45.987Z,3.97
2023-03-23T21:18:34.959Z,4.20
2023-03-23T21:21:27.117Z,4.00
2023-03-23T21:24:16.360Z,4.82
2023-03-23T21:27:06.330Z,4.10
2023-03-23T21:29:57.953Z,3.90
2023-03-23T21:32:49.758Z,4.53
2023-03-23T21:35:37.848Z,3.33
2023-03-23T21:38:26.646Z,4.15
2023-03-23T21:41:15.812Z,4.30
2023-03-23T21:44:10.382Z,4.10
2023-03-23T21:47:01.791Z,3.42
2023-03-23T21:49:50.117Z,3.97
2023-03-23T21:52:38.654Z,3.10
2023-03-23T21:55:29.767Z,4.03
2023-03-23T21:58:18.297Z,3.10
2023-03-23T22:01:08.701Z,3.42
2023-03-23T22:03:57.146Z,3.47
2023-03-23T22:06:46.039Z,3.17
2023-03-23T22:09:35.304Z,2.88
2023-03-23T22:12:23.379Z,3.20
2023-03-23T22:15:15.187Z,3.20
2023-03-23T22:18:04.927Z,3.53
2023-03-23T22:20:53.385Z,2.85
2023-03-23T22:23:42.559Z,3.10
2023-03-23T22:26:31.520Z,3.60
2023-03-23T22:29:19.716Z,2.83
2023-03-23T22:32:07.797Z,2.90
2023-03-23T22:34:57.195Z,3.08
2023-03-23T22:37:45.160Z,2.60
2023-03-23T22:40:33.263Z,3.10
2023-03-23T22:43:21.252Z,3.30
2023-03-23T22:46:09.338Z,2.90
2023-03-23T22:48:57.413Z,3.25
2023-03-23T22:51:47.009Z,3.17
2023-03-23T22:54:35.216Z,3.20
2023-03-23T22:57:23.235Z,3.65
2023-03-23T23:00:15.197Z,2.50
2023-03-23T23:03:03.289Z,2.65
2023-03-23T23:05:52.788Z,2.75
2023-03-23T23:08:42.846Z,2.70
2023-03-23T23:11:31.478Z,2.90
2023-03-23T23:14:19.643Z,2.70
2023-03-23T23:17:07.667Z,3.25
2023-03-23T23:19:56.816Z,3.05
2023-03-23T23:22:45.152Z,3.00
2023-03-23T23:25:35.777Z,2.85
2023-03-23T23:28:24.327Z,2.63
2023-03-23T23:31:27.002Z,2.78
2023-03-23T23:34:15.422Z,3.10
2023-03-23T23:37:03.412Z,2.95
2023-03-23T23:39:51.649Z,2.88
2023-03-23T23:42:41.184Z,3.60
2023-03-23T23:45:29.504Z,3.15
2023-03-23T23:48:18.344Z,3.20
2023-03-23T23:51:07.035Z,3.75
2023-03-23T23:53:58.566Z,4.13
2023-03-23T23:56:47.196Z,3.80
2023-03-23T23:59:39.618Z,3.80
